Time;durP1;ratioP1;P1;durP2;ratioP2;P2;SDS_P1;SDS_P2;PMS_P1;PMS_P2;Temp;Humidity;BMP_temperature;BMP_pressure;BME280_temperature;BME280_humidity;BME280_pressure;Samples;Min_cycle;Max_cycle;Signal;HPM_P1;HPM_P2
2023/12/12 00:01:57;;;;;;;;;;;16.20;83.30;;;;;;5052517;28;20004;-77
2023/12/12 00:04:23;;;;;;;;;;;16.10;83.30;;;;;;5051974;28;19947;-77
2023/12/12 00:06:49;;;;;;;;;;;16.10;83.10;;;;;;5052189;28;19909;-77
2023/12/12 00:09:15;;;;;;;;;;;16.10;83.40;;;;;;5052435;28;19916;-77
2023/12/12 00:11:41;;;;;;;;;;;16.20;83.20;;;;;;5052175;28;19909;-77
2023/12/12 00:14:06;;;;;;;;;;;16.10;83.40;;;;;;5052355;28;19912;-77
2023/12/12 00:16:32;;;;;;;;;;;16.20;83.30;;;;;;5052431;28;19920;-77
2023/12/12 00:18:58;;;;;;;;;;;16.20;83.20;;;;;;5056797;28;20283;-77
2023/12/12 00:21:24;;;;;;;;;;;16.10;82.60;;;;;;5056075;28;20353;-77
2023/12/12 00:23:49;;;;;;;;;;;16.20;83.20;;;;;;5056122;28;19962;-77
2023/12/12 00:26:15;;;;;;;;;;;16.20;83.10;;;;;;5056217;28;20302;-77
2023/12/12 00:28:41;;;;;;;;;;;16.10;83.20;;;;;;5056189;28;19950;-77
2023/12/12 00:31:06;;;;;;;;;;;16.30;83.10;;;;;;5056193;28;19944;-71
2023/12/12 00:33:32;;;;;;;;;;;16.20;83.00;;;;;;5056058;28;20363;-71
2023/12/12 00:36:00;;;;;;;;;;;16.20;83.20;;;;;;5055980;28;19956;-71
2023/12/12 00:38:29;;;;;;;;;;;16.10;83.10;;;;;;5055962;28;19916;-71
2023/12/12 00:40:55;;;;;;;;;;;16.10;83.10;;;;;;5055627;28;19992;-71
2023/12/12 00:43:22;;;;;;;;;;;16.10;83.20;;;;;;5055623;28;19916;-71
2023/12/12 00:45:51;;;;;;;;;;;16.10;82.60;;;;;;5055858;28;19947;-71
2023/12/12 00:48:17;;;;;;;;;;;16.10;77.50;;;;;;5055824;28;19976;-72
2023/12/12 00:50:43;;;;;;;;;;;16.10;82.70;;;;;;5055684;28;19989;-71
2023/12/12 00:53:09;;;;;;;;;;;16.10;83.20;;;;;;5055426;28;20359;-72
2023/12/12 00:55:35;;;;;;;;;;;16.10;82.60;;;;;;5055729;28;19915;-71
2023/12/12 00:58:01;;;;;;;;;;;16.00;82.70;;;;;;5055689;28;19917;-77
2023/12/12 01:00:27;;;;;;;;;;;16.10;82.90;;;;;;5055674;28;19963;-78
2023/12/12 01:02:53;;;;;;;;;;;16.00;82.60;;;;;;5055072;28;20391;-77
2023/12/12 01:05:19;;;;;;;;;;;16.10;83.00;;;;;;5055511;28;19956;-77
2023/12/12 01:07:45;;;;;;;;;;;16.10;82.90;;;;;;5055419;28;19928;-77
2023/12/12 01:10:11;;;;;;;;;;;16.10;83.20;;;;;;5055128;28;20342;-77
2023/12/12 01:12:37;;;;;;;;;;;15.80;82.70;;;;;;5055425;28;19927;-77
2023/12/12 01:15:03;;;;;;;;;;;16.10;82.10;;;;;;5055488;28;20007;-77
2023/12/12 01:17:29;;;;;;;;;;;16.10;82.60;;;;;;5055159;28;19916;-78
2023/12/12 01:19:55;;;;;;;;;;;16.00;82.20;;;;;;5054967;28;19932;-77
2023/12/12 01:22:21;;;;;;;;;;;16.00;82.70;;;;;;5054814;28;19909;-77
2023/12/12 01:24:47;;;;;;;;;;;16.00;82.80;;;;;;5054834;28;19909;-77
2023/12/12 01:27:13;;;;;;;;;;;16.00;82.80;;;;;;5054897;28;19909;-71
2023/12/12 01:29:38;;;;;;;;;;;15.20;82.00;;;;;;5053469;28;20279;-72
2023/12/12 01:32:04;;;;;;;;;;;16.10;82.90;;;;;;5036918;28;19916;-72
2023/12/12 01:34:30;;;;;;;;;;;16.00;81.00;;;;;;5054980;28;19951;-72
2023/12/12 01:36:55;;;;;;;;;;;16.00;83.60;;;;;;5054957;28;19952;-72
2023/12/12 01:39:20;;;;;;;;;;;16.10;82.50;;;;;;5054594;28;19916;-72
2023/12/12 01:41:47;;;;;;;;;;;16.00;82.60;;;;;;5054552;28;19915;-72
2023/12/12 01:44:13;;;;;;;;;;;16.00;82.20;;;;;;5055230;28;19909;-72
2023/12/12 01:46:38;;;;;;;;;;;16.00;82.40;;;;;;5054411;28;20007;-72
2023/12/12 01:49:04;;;;;;;;;;;16.00;82.70;;;;;;5054699;28;19909;-72
2023/12/12 01:51:30;;;;;;;;;;;16.00;83.20;;;;;;5054345;28;19963;-72
2023/12/12 01:53:56;;;;;;;;;;;16.00;83.20;;;;;;5054478;28;19913;-72
2023/12/12 01:56:22;;;;;;;;;;;16.00;82.70;;;;;;5036398;28;20004;-77
2023/12/12 01:58:49;;;;;;;;;;;15.90;83.20;;;;;;5036386;28;20374;-77
2023/12/12 02:01:15;;;;;;;;;;;16.00;83.00;;;;;;5036313;28;20019;-77
2023/12/12 02:03:41;;;;;;;;;;;15.90;83.60;;;;;;5036067;28;19975;-77
2023/12/12 02:06:08;;;;;;;;;;;16.00;83.20;;;;;;5036716;28;19966;-77
2023/12/12 02:08:34;;;;;;;;;;;15.90;83.30;;;;;;5036193;28;19913;-77
2023/12/12 02:11:00;;;;;;;;;;;16.00;83.50;;;;;;5036203;28;20352;-78
2023/12/12 02:13:25;;;;;;;;;;;15.90;82.90;;;;;;5036703;28;19916;-72
2023/12/12 02:15:51;;;;;;;;;;;15.80;82.80;;;;;;5036014;28;19984;-72
2023/12/12 02:18:16;;;;;;;;;;;16.00;83.20;;;;;;5035965;28;20011;-72
2023/12/12 02:20:42;;;;;;;;;;;16.00;83.30;;;;;;5035911;28;19960;-72
2023/12/12 02:23:08;;;;;;;;;;;16.00;83.60;;;;;;5036013;28;20272;-76
2023/12/12 02:25:34;;;;;;;;;;;15.90;82.70;;;;;;5036036;28;20007;-77
2023/12/12 02:28:00;;;;;;;;;;;16.00;83.50;;;;;;5035865;28;19923;-76
2023/12/12 02:30:26;;;;;;;;;;;16.00;83.50;;;;;;5035748;28;19917;-76
2023/12/12 02:32:51;;;;;;;;;;;15.90;83.30;;;;;;5035771;28;19913;-76
2023/12/12 02:35:17;;;;;;;;;;;15.90;83.20;;;;;;5035627;28;19912;-76
2023/12/12 02:37:43;;;;;;;;;;;15.90;83.00;;;;;;5035590;28;19921;-76
2023/12/12 02:40:09;;;;;;;;;;;15.90;83.20;;;;;;5035765;28;19917;-71
2023/12/12 02:42:34;;;;;;;;;;;15.90;82.60;;;;;;5035535;28;20054;-71
2023/12/12 02:45:00;;;;;;;;;;;16.00;83.30;;;;;;5035383;28;19944;-71
2023/12/12 02:47:25;;;;;;;;;;;15.90;83.20;;;;;;5035392;28;19949;-70
2023/12/12 02:49:51;;;;;;;;;;;15.90;83.10;;;;;;5035305;28;19913;-71
2023/12/12 02:52:17;;;;;;;;;;;15.90;83.30;;;;;;5035806;28;19913;-76
2023/12/12 02:54:43;;;;;;;;;;;15.90;83.00;;;;;;5035358;28;19913;-76
2023/12/12 02:57:09;;;;;;;;;;;15.90;82.60;;;;;;5035309;28;19962;-76
2023/12/12 02:59:35;;;;;;;;;;;15.90;83.20;;;;;;5035247;28;19913;-76
2023/12/12 03:02:01;;;;;;;;;;;15.90;82.60;;;;;;5053362;28;19920;-77
2023/12/12 03:04:26;;;;;;;;;;;16.30;83.40;;;;;;5035068;28;19925;-76
2023/12/12 03:06:52;;;;;;;;;;;15.90;83.00;;;;;;5035045;28;19917;-77
2023/12/12 03:09:17;;;;;;;;;;;15.90;83.00;;;;;;5035615;28;19924;-76
2023/12/12 03:11:44;;;;;;;;;;;15.80;83.10;;;;;;5034952;28;19966;-77
2023/12/12 03:14:10;;;;;;;;;;;15.90;83.20;;;;;;5034870;28;20008;-77
2023/12/12 03:16:35;;;;;;;;;;;15.90;82.80;;;;;;5034872;28;21895;-77
2023/12/12 03:19:01;;;;;;;;;;;15.90;83.00;;;;;;5034955;28;19916;-76
2023/12/12 03:21:26;;;;;;;;;;;15.90;82.30;;;;;;5034841;28;19913;-77
2023/12/12 03:23:52;;;;;;;;;;;15.70;82.60;;;;;;5034785;28;19963;-77
2023/12/12 03:26:18;;;;;;;;;;;15.90;83.00;;;;;;5034839;28;19921;-77
2023/12/12 03:28:43;;;;;;;;;;;15.80;82.80;;;;;;5052584;28;19928;-77
2023/12/12 03:31:10;;;;;;;;;;;15.80;79.90;;;;;;5034518;28;20288;-77
2023/12/12 03:33:36;;;;;;;;;;;15.90;82.90;;;;;;5034680;28;19913;-76
2023/12/12 03:36:06;;;;;;;;;;;15.80;82.70;;;;;;5034657;28;19958;-77
2023/12/12 03:38:31;;;;;;;;;;;15.80;82.40;;;;;;5035004;28;19920;-71
2023/12/12 03:40:57;;;;;;;;;;;15.80;82.90;;;;;;5034637;28;19920;-71
2023/12/12 03:43:22;;;;;;;;;;;15.80;82.40;;;;;;5034608;28;20269;-71
2023/12/12 03:45:48;;;;;;;;;;;15.80;83.00;;;;;;5034448;28;19927;-71
2023/12/12 03:48:13;;;;;;;;;;;15.70;82.80;;;;;;5034624;28;19920;-71
2023/12/12 03:50:38;;;;;;;;;;;15.80;82.80;;;;;;5034566;28;19920;-71
2023/12/12 03:53:04;;;;;;;;;;;15.80;82.80;;;;;;5033711;28;19913;-71
2023/12/12 03:55:30;;;;;;;;;;;15.80;82.80;;;;;;5034398;28;19913;-71
2023/12/12 03:57:55;;;;;;;;;;;15.80;82.70;;;;;;5034293;28;19921;-71
2023/12/12 04:00:21;;;;;;;;;;;15.80;82.50;;;;;;5034355;28;20287;-71
2023/12/12 04:02:46;;;;;;;;;;;15.80;82.20;;;;;;5034087;28;19924;-71
2023/12/12 04:05:12;;;;;;;;;;;16.00;82.80;;;;;;5034375;28;20019;-71
2023/12/12 04:07:37;;;;;;;;;;;15.80;82.20;;;;;;5034824;28;19919;-71
2023/12/12 04:10:06;;;;;;;;;;;15.80;83.00;;;;;;5034227;28;20445;-71
2023/12/12 04:12:35;;;;;;;;;;;15.70;82.30;;;;;;5052065;28;19909;-70
2023/12/12 04:15:01;;;;;;;;;;;15.80;77.40;;;;;;5052108;28;19909;-71
2023/12/12 04:17:26;;;;;;;;;;;15.70;82.40;;;;;;5052076;28;20432;-76
2023/12/12 04:19:52;;;;;;;;;;;15.80;82.80;;;;;;5052220;28;19916;-78
2023/12/12 04:22:17;;;;;;;;;;;15.60;82.30;;;;;;5052167;28;19909;-76
2023/12/12 04:24:43;;;;;;;;;;;15.70;82.80;;;;;;5052095;28;20487;-76
2023/12/12 04:27:08;;;;;;;;;;;15.70;82.70;;;;;;5051993;28;19966;-76
2023/12/12 04:29:34;;;;;;;;;;;15.70;82.80;;;;;;5052264;28;19909;-76
2023/12/12 04:31:59;;;;;;;;;;;15.80;82.70;;;;;;5051936;28;19915;-76
2023/12/12 04:34:25;;;;;;;;;;;15.70;82.20;;;;;;5052486;28;20517;-71
2023/12/12 04:36:50;;;;;;;;;;;15.70;82.60;;;;;;5051833;28;19927;-71
2023/12/12 04:39:18;;;;;;;;;;;15.70;82.80;;;;;;5051829;28;20440;-71
2023/12/12 04:41:44;;;;;;;;;;;15.70;79.80;;;;;;5052076;28;19909;-71
2023/12/12 04:44:09;;;;;;;;;;;15.70;82.40;;;;;;5052068;28;19916;-71
2023/12/12 04:46:35;;;;;;;;;;;15.80;83.00;;;;;;5051939;28;19955;-77
2023/12/12 04:49:02;;;;;;;;;;;15.70;82.70;;;;;;5051826;28;19909;-77
2023/12/12 04:51:28;;;;;;;;;;;15.60;82.60;;;;;;5052030;28;20279;-77
2023/12/12 04:53:53;;;;;;;;;;;15.80;83.20;;;;;;5051736;28;19947;-77
2023/12/12 04:56:19;;;;;;;;;;;15.70;82.80;;;;;;5051763;28;20375;-77
2023/12/12 04:58:44;;;;;;;;;;;15.80;83.20;;;;;;5051607;28;19917;-77
2023/12/12 05:01:10;;;;;;;;;;;15.70;83.00;;;;;;5051700;28;19932;-77
2023/12/12 05:03:35;;;;;;;;;;;15.80;82.80;;;;;;5053226;28;19979;-76
2023/12/12 05:06:01;;;;;;;;;;;15.80;83.10;;;;;;5055322;28;19908;-77
2023/12/12 05:08:26;;;;;;;;;;;15.80;83.40;;;;;;5055499;28;19909;-77
2023/12/12 05:10:52;;;;;;;;;;;15.80;83.20;;;;;;5055191;28;19909;-77
2023/12/12 05:13:18;;;;;;;;;;;15.70;83.30;;;;;;5055274;28;19924;-77
2023/12/12 05:15:43;;;;;;;;;;;15.80;83.40;;;;;;5055250;28;19916;-77
2023/12/12 05:18:09;;;;;;;;;;;15.70;83.20;;;;;;5055072;28;19917;-76
2023/12/12 05:20:35;;;;;;;;;;;15.80;83.40;;;;;;5055303;28;19909;-78
2023/12/12 05:23:01;;;;;;;;;;;15.80;83.40;;;;;;5055431;28;20378;-78
2023/12/12 05:25:26;;;;;;;;;;;15.80;83.60;;;;;;5055374;28;20442;-75
2023/12/12 05:27:52;;;;;;;;;;;15.80;83.80;;;;;;5055172;28;19955;-78
2023/12/12 05:30:17;;;;;;;;;;;15.80;83.80;;;;;;5054973;28;19912;-78
2023/12/12 05:32:43;;;;;;;;;;;15.70;83.00;;;;;;5055448;28;19915;-78
2023/12/12 05:35:09;;;;;;;;;;;15.80;83.60;;;;;;5054823;28;19947;-78
2023/12/12 05:37:35;;;;;;;;;;;15.70;83.70;;;;;;5054737;28;19924;-78
2023/12/12 05:40:01;;;;;;;;;;;15.70;83.80;;;;;;5054611;28;19936;-78
2023/12/12 05:42:26;;;;;;;;;;;15.80;84.00;;;;;;5054671;28;19916;-77
2023/12/12 05:44:52;;;;;;;;;;;15.70;83.60;;;;;;5054907;28;19909;-72
2023/12/12 05:47:17;;;;;;;;;;;15.80;83.80;;;;;;5054498;28;19962;-72
2023/12/12 05:49:43;;;;;;;;;;;15.80;83.80;;;;;;5054476;28;19917;-72
2023/12/12 05:52:08;;;;;;;;;;;15.70;83.40;;;;;;5054424;28;19912;-72
2023/12/12 05:54:34;;;;;;;;;;;15.70;83.90;;;;;;5036430;28;19974;-73
2023/12/12 05:56:59;;;;;;;;;;;15.70;83.80;;;;;;5054271;28;19913;-72
2023/12/12 05:59:25;;;;;;;;;;;15.80;83.30;;;;;;5054777;28;19915;-72
2023/12/12 06:01:50;;;;;;;;;;;15.80;83.40;;;;;;5054161;28;20334;-72
2023/12/12 06:04:16;;;;;;;;;;;15.80;83.50;;;;;;5054131;28;20367;-72
2023/12/12 06:06:43;;;;;;;;;;;15.80;84.30;;;;;;5054070;28;19908;-72
2023/12/12 06:09:10;;;;;;;;;;;15.80;84.00;;;;;;5054324;28;19913;-72
2023/12/12 06:11:36;;;;;;;;;;;15.70;83.90;;;;;;5054273;28;19908;-78
2023/12/12 06:14:03;;;;;;;;;;;15.70;83.50;;;;;;5053743;28;19909;-77
2023/12/12 06:16:33;;;;;;;;;;;15.80;83.90;;;;;;5053328;28;20007;-77
2023/12/12 06:18:59;;;;;;;;;;;15.70;78.70;;;;;;5053876;28;19916;-77
2023/12/12 06:21:25;;;;;;;;;;;15.70;83.50;;;;;;5054164;28;19915;-77
2023/12/12 06:23:51;;;;;;;;;;;15.70;84.00;;;;;;5053760;28;20071;-77
2023/12/12 06:26:17;;;;;;;;;;;15.70;83.80;;;;;;5054017;28;19916;-77
2023/12/12 06:28:43;;;;;;;;;;;15.70;83.40;;;;;;5054158;28;20427;-81
2023/12/12 06:31:09;;;;;;;;;;;15.70;84.00;;;;;;5053696;28;20004;-80
2023/12/12 06:33:34;;;;;;;;;;;15.80;83.50;;;;;;5053686;28;20000;-79
2023/12/12 06:35:59;;;;;;;;;;;15.80;83.90;;;;;;5053580;28;19983;-77
2023/12/12 06:38:25;;;;;;;;;;;15.70;84.10;;;;;;5053594;28;19917;-78
2023/12/12 06:40:51;;;;;;;;;;;15.80;84.00;;;;;;5053574;28;20362;-77
2023/12/12 06:43:17;;;;;;;;;;;15.70;84.10;;;;;;5053433;28;19908;-79
2023/12/12 06:45:42;;;;;;;;;;;15.80;83.90;;;;;;5053297;28;19951;-80
2023/12/12 06:48:08;;;;;;;;;;;15.80;83.90;;;;;;5053595;28;20382;-79
2023/12/12 06:50:33;;;;;;;;;;;15.80;84.30;;;;;;5053263;28;19909;-79
2023/12/12 06:52:58;;;;;;;;;;;15.80;84.20;;;;;;5053261;28;19915;-80
2023/12/12 06:55:25;;;;;;;;;;;15.80;84.10;;;;;;5053235;28;20003;-77
2023/12/12 06:57:51;;;;;;;;;;;15.80;83.90;;;;;;5053588;28;19986;-79
2023/12/12 07:00:16;;;;;;;;;;;15.70;84.60;;;;;;5053114;28;19909;-79
2023/12/12 07:02:42;;;;;;;;;;;15.80;84.20;;;;;;5052720;28;19942;-78
2023/12/12 07:05:07;;;;;;;;;;;15.90;84.50;;;;;;5053095;28;19978;-79
2023/12/12 07:07:33;;;;;;;;;;;15.80;83.40;;;;;;5053444;28;19935;-76
2023/12/12 07:09:58;;;;;;;;;;;15.80;84.20;;;;;;5035279;28;20362;-76
2023/12/12 07:12:24;;;;;;;;;;;15.80;84.40;;;;;;5053406;28;19909;-81
2023/12/12 07:14:50;;;;;;;;;;;15.90;84.80;;;;;;5053029;28;19913;-80
2023/12/12 07:17:16;;;;;;;;;;;15.80;84.80;;;;;;5052983;28;20043;-81
2023/12/12 07:19:43;;;;;;;;;;;15.90;85.00;;;;;;5052793;28;20371;-80
2023/12/12 07:22:09;;;;;;;;;;;15.80;84.60;;;;;;5053141;28;19909;-81
2023/12/12 07:24:35;;;;;;;;;;;15.70;84.40;;;;;;5053107;28;19915;-80
2023/12/12 07:27:01;;;;;;;;;;;15.80;84.80;;;;;;5053097;28;19909;-72
2023/12/12 07:29:27;;;;;;;;;;;15.80;84.70;;;;;;5053019;28;19908;-72
2023/12/12 07:31:53;;;;;;;;;;;15.80;84.70;;;;;;5052909;28;19909;-72
2023/12/12 07:34:19;;;;;;;;;;;15.80;84.60;;;;;;5052568;28;20310;-74
2023/12/12 07:36:45;;;;;;;;;;;15.80;84.70;;;;;;5052716;28;19909;-73
2023/12/12 07:39:11;;;;;;;;;;;15.80;84.50;;;;;;5052560;28;20260;-74
2023/12/12 07:41:36;;;;;;;;;;;15.80;84.70;;;;;;5052761;28;19908;-74
2023/12/12 07:44:03;;;;;;;;;;;15.90;84.40;;;;;;5053230;28;19909;-74
2023/12/12 07:46:28;;;;;;;;;;;15.80;84.40;;;;;;5052650;28;19936;-75
2023/12/12 07:48:54;;;;;;;;;;;15.80;84.60;;;;;;5052378;28;19909;-75
2023/12/12 07:51:21;;;;;;;;;;;15.80;84.20;;;;;;5052737;28;19970;-76
2023/12/12 07:53:47;;;;;;;;;;;15.90;84.70;;;;;;5052367;28;19909;-73
2023/12/12 07:56:12;;;;;;;;;;;15.90;84.50;;;;;;5052658;28;19932;-81
2023/12/12 07:58:38;;;;;;;;;;;15.80;84.50;;;;;;5052627;28;20260;-80
2023/12/12 08:01:03;;;;;;;;;;;15.80;84.60;;;;;;5052630;28;19916;-85
2023/12/12 08:03:29;;;;;;;;;;;15.80;84.00;;;;;;5052298;28;19921;-84
2023/12/12 08:05:55;;;;;;;;;;;15.80;84.20;;;;;;5052573;28;19909;-84
2023/12/12 08:08:20;;;;;;;;;;;15.80;84.50;;;;;;5052410;28;20006;-79
2023/12/12 08:10:46;;;;;;;;;;;15.90;84.60;;;;;;5052353;28;19963;-80
2023/12/12 08:13:13;;;;;;;;;;;15.80;84.40;;;;;;5052859;28;19908;-79
2023/12/12 08:15:38;;;;;;;;;;;15.80;84.70;;;;;;5052330;28;20286;-78
2023/12/12 08:18:04;;;;;;;;;;;15.80;84.20;;;;;;5052193;28;19924;-79
2023/12/12 08:20:29;;;;;;;;;;;15.30;83.90;;;;;;5052357;28;19949;-77
2023/12/12 08:22:56;;;;;;;;;;;15.80;84.00;;;;;;5052297;28;20425;-79
2023/12/12 08:25:22;;;;;;;;;;;14.00;83.20;;;;;;5052228;28;19913;-73
2023/12/12 08:27:48;;;;;;;;;;;15.90;84.20;;;;;;5052162;28;20000;-73
2023/12/12 08:30:13;;;;;;;;;;;15.90;84.50;;;;;;5052093;28;20006;-72
2023/12/12 08:32:39;;;;;;;;;;;15.90;84.10;;;;;;5051967;28;19909;-72
2023/12/12 08:35:06;;;;;;;;;;;15.80;83.80;;;;;;5052075;28;19959;-72
2023/12/12 08:37:32;;;;;;;;;;;15.80;83.90;;;;;;5052373;28;19939;-72
2023/12/12 08:39:58;;;;;;;;;;;15.90;84.10;;;;;;5056135;28;19916;-72
2023/12/12 08:42:24;;;;;;;;;;;15.80;84.40;;;;;;5056585;28;19909;-72
2023/12/12 08:44:50;;;;;;;;;;;15.80;84.40;;;;;;5038324;28;20300;-72
2023/12/12 08:47:16;;;;;;;;;;;15.90;84.10;;;;;;5038201;28;19912;-72
2023/12/12 08:49:42;;;;;;;;;;;15.80;84.50;;;;;;5038215;28;20015;-72
2023/12/12 08:52:08;;;;;;;;;;;15.80;84.20;;;;;;5038164;28;20023;-73
2023/12/12 08:54:37;;;;;;;;;;;15.90;84.10;;;;;;5038268;28;20320;-72
2023/12/12 08:57:04;;;;;;;;;;;15.90;83.70;;;;;;5038129;28;19971;-71
2023/12/12 08:59:29;;;;;;;;;;;15.90;83.60;;;;;;5055757;28;19991;-72
2023/12/12 09:01:56;;;;;;;;;;;15.90;83.60;;;;;;5037644;28;20272;-72
2023/12/12 09:04:22;;;;;;;;;;;15.80;84.30;;;;;;5055175;28;19967;-72
2023/12/12 09:06:48;;;;;;;;;;;15.60;83.80;;;;;;5055693;28;19913;-72
2023/12/12 09:09:15;;;;;;;;;;;15.90;84.00;;;;;;5056153;28;19909;-71
2023/12/12 09:11:44;;;;;;;;;;;15.90;84.20;;;;;;5055625;28;19909;-71
2023/12/12 09:14:10;;;;;;;;;;;15.90;84.20;;;;;;5055214;28;19991;-72
2023/12/12 09:16:36;;;;;;;;;;;15.90;83.60;;;;;;5055099;28;19960;-72
2023/12/12 09:19:02;;;;;;;;;;;15.80;84.00;;;;;;5055166;28;19913;-72
2023/12/12 09:21:28;;;;;;;;;;;15.80;83.90;;;;;;5055142;28;19909;-72
2023/12/12 09:23:53;;;;;;;;;;;15.80;83.90;;;;;;5055378;28;19909;-72
2023/12/12 09:26:20;;;;;;;;;;;15.90;84.20;;;;;;5055183;28;20278;-72
2023/12/12 09:28:47;;;;;;;;;;;15.90;83.70;;;;;;5055204;28;19908;-71
2023/12/12 09:31:13;;;;;;;;;;;15.90;84.20;;;;;;5056176;28;19908;-72
2023/12/12 09:33:39;;;;;;;;;;;15.90;84.00;;;;;;5055146;28;20275;-72
2023/12/12 09:36:06;;;;;;;;;;;15.90;84.00;;;;;;5055186;28;20314;-72
2023/12/12 09:38:31;;;;;;;;;;;16.00;82.10;;;;;;5055234;28;20454;-84
2023/12/12 09:40:58;;;;;;;;;;;15.90;84.00;;;;;;5055110;28;19917;-86
2023/12/12 09:43:27;;;;;;;;;;;16.00;84.00;;;;;;5054984;28;19908;-80
2023/12/12 09:45:55;;;;;;;;;;;15.90;79.80;;;;;;5054602;28;19999;-81
2023/12/12 09:48:21;;;;;;;;;;;15.90;84.20;;;;;;5054869;28;20308;-81
2023/12/12 09:50:47;;;;;;;;;;;16.00;83.80;;;;;;5053447;28;19951;-81
2023/12/12 09:53:13;;;;;;;;;;;15.90;84.20;;;;;;5054593;28;19916;-79
2023/12/12 09:55:40;;;;;;;;;;;15.90;84.10;;;;;;5054697;28;19908;-79
2023/12/12 09:58:06;;;;;;;;;;;16.00;84.20;;;;;;5054703;28;19956;-80
2023/12/12 10:00:32;;;;;;;;;;;15.90;84.00;;;;;;5054614;28;19916;-79
2023/12/12 10:03:04;;;;;;;;;;;15.90;83.80;;;;;;5054290;28;19913;-79
2023/12/12 10:05:30;;;;;;;;;;;15.90;84.50;;;;;;5054259;28;19909;-79
2023/12/12 10:07:57;;;;;;;;;;;15.90;84.40;;;;;;5054713;28;19915;-79
2023/12/12 10:10:23;;;;;;;;;;;15.90;84.20;;;;;;5054506;28;19909;-78
2023/12/12 10:12:49;;;;;;;;;;;15.90;84.40;;;;;;5054408;28;19976;-78
2023/12/12 10:15:22;;;;;;;;;;;15.20;84.00;;;;;;5054360;28;19909;-79
2023/12/12 10:17:48;;;;;;;;;;;15.90;78.90;;;;;;5054099;28;19971;-72
2023/12/12 10:20:22;;;;;;;;;;;16.00;84.30;;;;;;5054108;28;20387;-72
2023/12/12 10:22:47;;;;;;;;;;;15.90;84.30;;;;;;5054015;28;19999;-72
2023/12/12 10:25:16;;;;;;;;;;;15.90;83.90;;;;;;5053976;28;19997;-72
2023/12/12 10:27:42;;;;;;;;;;;15.90;81.40;;;;;;5054088;28;19915;-72
2023/12/12 10:30:08;;;;;;;;;;;15.90;84.20;;;;;;5054076;28;19932;-72
2023/12/12 10:32:36;;;;;;;;;;;16.00;82.80;;;;;;5053738;28;19908;-72
2023/12/12 10:35:01;;;;;;;;;;;16.00;84.60;;;;;;5054293;28;20330;-78
2023/12/12 10:37:27;;;;;;;;;;;16.40;84.30;;;;;;5053692;28;19917;-78
2023/12/12 10:39:52;;;;;;;;;;;16.00;84.60;;;;;;5053962;28;19909;-78
2023/12/12 10:42:18;;;;;;;;;;;16.00;84.60;;;;;;5053920;28;19912;-78
2023/12/12 10:44:46;;;;;;;;;;;16.00;84.50;;;;;;5053664;28;19916;-78
2023/12/12 10:47:13;;;;;;;;;;;16.00;85.10;;;;;;5053617;28;19908;-73
2023/12/12 10:49:41;;;;;;;;;;;15.70;84.30;;;;;;5053439;28;19912;-72
2023/12/12 10:52:08;;;;;;;;;;;16.00;85.20;;;;;;5053528;28;19913;-72
2023/12/12 10:54:35;;;;;;;;;;;16.00;85.10;;;;;;5053586;28;19916;-72
2023/12/12 10:57:04;;;;;;;;;;;16.00;85.00;;;;;;5053538;28;19913;-72
2023/12/12 10:59:30;;;;;;;;;;;16.00;84.60;;;;;;5053168;28;20279;-79
2023/12/12 11:01:56;;;;;;;;;;;16.00;84.60;;;;;;5052895;28;19909;-73
2023/12/12 11:04:23;;;;;;;;;;;16.00;84.90;;;;;;5053510;28;19921;-75
2023/12/12 11:06:49;;;;;;;;;;;16.00;85.00;;;;;;5053063;28;19920;-77
2023/12/12 11:09:15;;;;;;;;;;;16.10;85.20;;;;;;5053106;28;20003;-80
2023/12/12 11:11:42;;;;;;;;;;;16.00;84.90;;;;;;5052966;28;20003;-79
2023/12/12 11:14:08;;;;;;;;;;;16.10;85.30;;;;;;5053053;28;19920;-84
2023/12/12 11:16:34;;;;;;;;;;;16.10;85.10;;;;;;5053033;28;19913;-72
2023/12/12 11:19:01;;;;;;;;;;;16.10;85.10;;;;;;5052824;28;19987;-72
2023/12/12 11:21:42;;;;;;;;;;;16.00;85.00;;;;;;5052952;28;19916;-72
2023/12/12 11:24:07;;;;;;;;;;;16.10;79.60;;;;;;5052845;28;19909;-72
2023/12/12 11:26:33;;;;;;;;;;;16.10;85.00;;;;;;5052862;28;19916;-72
2023/12/12 11:28:59;;;;;;;;;;;16.20;84.50;;;;;;5052751;28;19934;-73
2023/12/12 11:31:27;;;;;;;;;;;16.20;84.90;;;;;;5053263;28;19909;-72
2023/12/12 11:34:05;;;;;;;;;;;16.30;79.90;;;;;;5052641;28;19999;-72
2023/12/12 11:36:49;;;;;;;;;;;16.40;79.90;;;;;;5052684;28;19962;-73
2023/12/12 11:39:22;;;;;;;;;;;16.20;79.80;;;;;;5052639;28;19920;-72
2023/12/12 11:41:47;;;;;;;;;;;16.20;79.70;;;;;;5052493;28;19916;-72
2023/12/12 11:44:17;;;;;;;;;;;16.10;84.40;;;;;;5052809;28;20287;-79
2023/12/12 11:46:43;;;;;;;;;;;16.20;85.10;;;;;;5052726;28;20275;-79
2023/12/12 11:49:21;;;;;;;;;;;16.20;84.80;;;;;;5052352;28;19912;-79
2023/12/12 11:51:49;;;;;;;;;;;16.20;84.60;;;;;;5052738;28;19909;-79
2023/12/12 11:54:19;;;;;;;;;;;16.10;84.80;;;;;;5052761;28;19909;-79
2023/12/12 11:56:45;;;;;;;;;;;16.20;79.50;;;;;;5052283;28;20003;-79
2023/12/12 11:59:11;;;;;;;;;;;16.10;84.90;;;;;;5052724;28;19996;-79
2023/12/12 12:01:37;;;;;;;;;;;16.40;84.60;;;;;;5053140;28;19990;-79
2023/12/12 12:04:03;;;;;;;;;;;16.20;85.10;;;;;;5052311;28;19925;-79
2023/12/12 12:06:29;;;;;;;;;;;16.20;84.20;;;;;;5052147;28;20272;-79
2023/12/12 12:08:55;;;;;;;;;;;16.20;85.00;;;;;;5052293;28;19916;-79
2023/12/12 12:11:21;;;;;;;;;;;16.20;84.80;;;;;;5052265;28;19909;-72
2023/12/12 12:13:47;;;;;;;;;;;16.20;84.80;;;;;;5054769;28;19915;-79
2023/12/12 12:16:13;;;;;;;;;;;16.20;84.30;;;;;;5056612;28;19915;-79
2023/12/12 12:18:39;;;;;;;;;;;16.20;84.80;;;;;;5056430;28;20003;-79
2023/12/12 12:21:07;;;;;;;;;;;16.20;84.70;;;;;;5056484;28;20326;-79
2023/12/12 12:23:40;;;;;;;;;;;16.20;83.90;;;;;;5056112;28;19908;-79
2023/12/12 12:26:06;;;;;;;;;;;16.20;79.50;;;;;;5056330;28;19983;-79
2023/12/12 12:28:33;;;;;;;;;;;16.20;84.60;;;;;;5056457;28;19909;-79
2023/12/12 12:30:59;;;;;;;;;;;16.20;84.90;;;;;;5056160;28;19966;-79
2023/12/12 12:33:31;;;;;;;;;;;16.30;84.70;;;;;;5056216;28;20317;-79
2023/12/12 12:35:57;;;;;;;;;;;16.20;79.60;;;;;;5056117;28;20082;-79
2023/12/12 12:38:24;;;;;;;;;;;16.20;84.80;;;;;;5056131;28;20004;-79
2023/12/12 12:40:50;;;;;;;;;;;16.20;84.70;;;;;;5056225;28;20015;-79
2023/12/12 12:43:17;;;;;;;;;;;16.20;84.20;;;;;;5055780;28;20294;-79
2023/12/12 12:45:44;;;;;;;;;;;16.20;84.50;;;;;;5056135;28;19916;-79
2023/12/12 12:48:11;;;;;;;;;;;16.20;84.30;;;;;;5056025;28;20282;-79
2023/12/12 12:50:43;;;;;;;;;;;16.30;84.60;;;;;;5055737;28;19930;-79
2023/12/12 12:53:09;;;;;;;;;;;16.20;79.40;;;;;;5055547;28;20394;-80
2023/12/12 12:55:36;;;;;;;;;;;16.30;84.70;;;;;;5056005;28;20312;-79
2023/12/12 12:58:02;;;;;;;;;;;16.20;84.10;;;;;;5056158;28;19920;-79
2023/12/12 13:00:28;;;;;;;;;;;16.20;84.30;;;;;;5055736;28;20363;-79
2023/12/12 13:02:55;;;;;;;;;;;16.20;84.20;;;;;;5055363;28;20306;-79
2023/12/12 13:05:21;;;;;;;;;;;16.40;84.60;;;;;;5055451;28;19959;-80
2023/12/12 13:07:47;;;;;;;;;;;16.20;84.20;;;;;;5055715;28;19920;-79
2023/12/12 13:10:15;;;;;;;;;;;16.20;84.60;;;;;;5055668;28;19912;-79
2023/12/12 13:12:44;;;;;;;;;;;16.20;84.30;;;;;;5055582;28;19909;-79
2023/12/12 13:15:10;;;;;;;;;;;16.20;84.20;;;;;;5055519;28;19908;-79
2023/12/12 13:17:37;;;;;;;;;;;16.20;84.60;;;;;;5055414;28;19923;-79
2023/12/12 13:20:09;;;;;;;;;;;16.30;84.50;;;;;;5055186;28;20393;-79
2023/12/12 13:22:39;;;;;;;;;;;16.00;83.60;;;;;;5055544;28;20330;-79
2023/12/12 13:25:14;;;;;;;;;;;16.40;79.40;;;;;;5055202;28;20330;-79
2023/12/12 13:27:40;;;;;;;;;;;16.20;79.20;;;;;;5055206;28;19916;-79
2023/12/12 13:30:10;;;;;;;;;;;16.30;84.80;;;;;;5055212;28;19992;-79
2023/12/12 13:32:42;;;;;;;;;;;16.20;83.10;;;;;;5055132;28;19964;-79
2023/12/12 13:35:09;;;;;;;;;;;16.30;79.40;;;;;;5055097;28;20286;-79
2023/12/12 13:37:36;;;;;;;;;;;16.30;84.10;;;;;;5054789;28;19916;-79
2023/12/12 13:40:03;;;;;;;;;;;16.00;84.70;;;;;;5054752;28;19948;-79
2023/12/12 13:42:29;;;;;;;;;;;16.20;84.70;;;;;;5055003;28;19917;-79
2023/12/12 13:44:55;;;;;;;;;;;16.30;84.50;;;;;;5054892;28;19976;-79
2023/12/12 13:47:21;;;;;;;;;;;16.40;84.60;;;;;;5054845;28;20244;-79
2023/12/12 13:49:47;;;;;;;;;;;16.40;84.80;;;;;;5054825;28;20295;-79
2023/12/12 13:52:13;;;;;;;;;;;16.40;84.70;;;;;;5054763;28;19915;-79
2023/12/12 13:54:39;;;;;;;;;;;16.30;84.50;;;;;;5055307;28;19909;-79
2023/12/12 13:57:07;;;;;;;;;;;16.20;84.20;;;;;;5054622;28;20007;-79
2023/12/12 13:59:34;;;;;;;;;;;16.30;84.70;;;;;;5054316;28;20076;-79
2023/12/12 14:02:00;;;;;;;;;;;16.20;84.20;;;;;;5054517;28;19908;-79
2023/12/12 14:04:25;;;;;;;;;;;16.20;84.10;;;;;;5054196;28;19921;-79
2023/12/12 14:06:51;;;;;;;;;;;16.30;84.20;;;;;;5054426;28;19909;-78
2023/12/12 14:09:16;;;;;;;;;;;16.30;84.50;;;;;;5054596;28;19948;-79
2023/12/12 14:11:42;;;;;;;;;;;16.20;84.30;;;;;;5036317;28;19909;-79